Time;durP1;ratioP1;P1;durP2;ratioP2;P2;SDS_P1;SDS_P2;PMS_P1;PMS_P2;Temp;Humidity;BMP_temperature;BMP_pressure;BME280_temperature;BME280_humidity;BME280_pressure;Samples;Min_cycle;Max_cycle;Signal;HPM_P1;HPM_P2
2022/06/26 00:00:16;;;;;;;1.20;0.80;;;15.30;99.90;;;;;;5108203;28;20480;-83
2022/06/26 00:02:44;;;;;;;1.57;0.93;;;15.20;99.90;;;;;;5105490;28;20537;-83
2022/06/26 00:05:11;;;;;;;1.30;1.13;;;15.20;99.90;;;;;;5107747;28;20891;-84
2022/06/26 00:07:38;;;;;;;1.40;1.30;;;15.20;99.90;;;;;;5107122;28;21137;-82
2022/06/26 00:10:06;;;;;;;1.93;0.90;;;15.20;99.90;;;;;;5105957;28;20475;-83
2022/06/26 00:12:34;;;;;;;2.40;1.13;;;15.10;99.90;;;;;;5107186;28;20453;-83
2022/06/26 00:15:02;;;;;;;1.53;1.33;;;15.10;99.90;;;;;;5103815;28;20517;-83
2022/06/26 00:17:29;;;;;;;1.53;1.23;;;15.10;99.90;;;;;;5106164;28;20445;-82
2022/06/26 00:19:58;;;;;;;1.10;1.07;;;15.10;99.90;;;;;;5106307;28;20538;-84
2022/06/26 00:22:25;;;;;;;1.07;0.87;;;15.10;99.90;;;;;;5105772;28;20524;-82
2022/06/26 00:24:52;;;;;;;1.10;0.90;;;15.00;99.90;;;;;;5103982;28;20580;-83
2022/06/26 00:27:20;;;;;;;1.37;1.10;;;15.00;99.90;;;;;;5107293;28;20535;-84
2022/06/26 00:29:47;;;;;;;1.23;0.93;;;15.00;99.90;;;;;;5105493;28;20465;-83
2022/06/26 00:32:14;;;;;;;2.40;1.33;;;15.10;99.90;;;;;;5106968;28;20448;-82
2022/06/26 00:34:41;;;;;;;1.43;1.33;;;15.10;99.90;;;;;;5105805;28;20504;-83
2022/06/26 00:37:09;;;;;;;3.53;1.00;;;15.00;99.90;;;;;;5107337;28;20537;-83
2022/06/26 00:39:37;;;;;;;1.23;1.00;;;14.90;99.90;;;;;;5106110;28;20518;-83
2022/06/26 00:42:04;;;;;;;3.17;2.80;;;14.70;99.90;;;;;;5104095;28;20907;-82
2022/06/26 00:44:31;;;;;;;1.40;1.30;;;14.70;99.90;;;;;;5106635;28;20526;-83
2022/06/26 00:46:58;;;;;;;3.53;1.50;;;14.80;99.90;;;;;;5105348;28;20446;-82
2022/06/26 00:49:25;;;;;;;5.30;3.20;;;14.80;99.90;;;;;;5101499;28;20463;-83
2022/06/26 00:51:54;;;;;;;9.03;2.60;;;14.70;99.90;;;;;;5106775;28;20445;-83
2022/06/26 00:54:27;;;;;;;1.63;1.40;;;14.60;99.90;;;;;;5104403;28;20468;-84
2022/06/26 00:56:56;;;;;;;1.63;1.53;;;14.70;99.90;;;;;;5102985;28;21106;-83
2022/06/26 00:59:24;;;;;;;1.67;1.33;;;14.70;99.90;;;;;;5106774;28;21331;-83
2022/06/26 01:01:51;;;;;;;2.40;1.20;;;14.80;99.90;;;;;;5104700;28;20470;-82
2022/06/26 01:04:18;;;;;;;2.33;2.13;;;14.80;99.90;;;;;;5102023;28;21071;-83
2022/06/26 01:06:46;;;;;;;1.90;1.53;;;14.70;99.90;;;;;;5106665;28;20497;-83
2022/06/26 01:09:13;;;;;;;1.57;1.47;;;14.60;99.90;;;;;;5105301;28;20534;-83
2022/06/26 01:11:43;;;;;;;1.40;1.30;;;14.60;99.90;;;;;;5104756;28;21042;-83
2022/06/26 01:14:11;;;;;;;1.30;1.20;;;14.60;99.90;;;;;;5098133;28;20453;-82
2022/06/26 01:16:39;;;;;;;2.37;1.63;;;14.50;99.90;;;;;;5100084;28;20455;-84
2022/06/26 01:19:08;;;;;;;2.03;1.73;;;14.50;99.90;;;;;;5105245;27;20512;-83
2022/06/26 01:21:35;;;;;;;2.10;2.00;;;14.50;99.90;;;;;;5108496;27;21320;-82
2022/06/26 01:24:05;;;;;;;1.13;1.03;;;14.50;99.90;;;;;;5104245;28;20459;-82
2022/06/26 01:26:32;;;;;;;1.40;1.30;;;14.50;99.90;;;;;;5104928;28;20488;-83
2022/06/26 01:28:59;;;;;;;1.57;1.17;;;14.50;99.90;;;;;;5105043;28;20454;-83
2022/06/26 01:31:26;;;;;;;0.67;0.67;;;14.40;99.90;;;;;;5107028;28;20458;-83
2022/06/26 01:33:53;;;;;;;1.60;0.60;;;14.40;99.90;;;;;;5107483;28;20456;-83
2022/06/26 01:36:20;;;;;;;1.03;0.80;;;14.40;99.90;;;;;;5104810;28;20559;-83
2022/06/26 01:38:48;;;;;;;1.33;1.00;;;14.30;99.90;;;;;;5105613;28;20517;-83
2022/06/26 01:41:17;;;;;;;0.60;0.60;;;14.30;99.90;;;;;;5102576;28;20543;-82
2022/06/26 01:43:43;;;;;;;0.50;0.43;;;14.40;99.90;;;;;;5105368;28;20546;-83
2022/06/26 01:46:10;;;;;;;0.77;0.60;;;14.30;99.90;;;;;;5099835;28;20541;-83
2022/06/26 01:48:40;;;;;;;0.50;0.40;;;14.10;99.90;;;;;;5105827;28;21001;-82
2022/06/26 01:51:07;;;;;;;0.57;0.57;;;14.20;99.90;;;;;;5103934;28;20850;-82
2022/06/26 01:53:35;;;;;;;0.60;0.60;;;14.20;99.90;;;;;;5103490;28;20469;-82
2022/06/26 01:56:02;;;;;;;0.80;0.63;;;14.30;99.90;;;;;;5104747;28;20443;-82
2022/06/26 01:58:31;;;;;;;0.87;0.60;;;14.40;99.90;;;;;;5101145;28;21060;-82
2022/06/26 02:00:58;;;;;;;1.90;0.60;;;14.30;99.90;;;;;;5102913;28;20546;-82
2022/06/26 02:03:27;;;;;;;0.50;0.50;;;14.20;99.90;;;;;;5106138;28;20448;-83
2022/06/26 02:05:54;;;;;;;0.80;0.60;;;14.10;99.90;;;;;;5100312;28;20531;-82
2022/06/26 02:08:21;;;;;;;0.60;0.40;;;14.10;99.90;;;;;;5105081;28;20455;-82
2022/06/26 02:13:37;;;;;;;0.70;0.60;;;14.00;99.90;;;;;;5097826;28;20542;-83
2022/06/26 02:16:05;;;;;;;0.63;0.63;;;14.10;99.90;;;;;;5101577;28;20451;-83
2022/06/26 02:18:32;;;;;;;0.70;0.70;;;14.10;99.90;;;;;;5102772;28;20493;-83
2022/06/26 02:20:59;;;;;;;0.53;0.53;;;14.00;99.90;;;;;;5103952;28;20602;-82
2022/06/26 02:23:27;;;;;;;1.23;0.63;;;13.90;99.90;;;;;;5101450;28;20458;-82
2022/06/26 02:25:54;;;;;;;0.70;0.70;;;14.00;99.90;;;;;;5101098;28;20831;-82
2022/06/26 02:28:21;;;;;;;0.70;0.50;;;13.90;99.90;;;;;;5102525;28;20447;-82
2022/06/26 02:30:50;;;;;;;2.07;0.60;;;13.80;99.90;;;;;;5102868;28;20498;-83
2022/06/26 02:33:19;;;;;;;0.60;0.40;;;13.80;99.90;;;;;;5099658;28;20462;-82
2022/06/26 02:35:51;;;;;;;0.80;0.80;;;13.80;99.90;;;;;;5102938;28;20457;-82
2022/06/26 02:38:18;;;;;;;0.60;0.60;;;13.80;99.90;;;;;;5102646;28;20453;-82
2022/06/26 02:40:45;;;;;;;2.67;0.80;;;13.70;99.90;;;;;;5104082;28;20456;-83
2022/06/26 02:43:12;;;;;;;0.63;0.63;;;13.70;99.90;;;;;;5103212;28;20856;-83
2022/06/26 02:45:39;;;;;;;0.50;0.40;;;13.70;99.90;;;;;;5101669;28;20498;-83
2022/06/26 02:48:08;;;;;;;0.40;0.40;;;13.80;99.90;;;;;;5097636;28;20446;-82
2022/06/26 02:50:35;;;;;;;0.60;0.40;;;13.90;99.90;;;;;;5104333;28;20444;-83
2022/06/26 02:53:03;;;;;;;0.47;0.37;;;13.90;99.90;;;;;;5104817;28;20475;-83
2022/06/26 02:55:30;;;;;;;0.50;0.40;;;13.90;99.90;;;;;;5103553;28;20541;-83
2022/06/26 02:57:57;;;;;;;0.63;0.40;;;13.90;99.90;;;;;;5102790;28;20463;-81
2022/06/26 03:00:24;;;;;;;0.40;0.40;;;13.90;99.90;;;;;;5103795;28;20526;-82
2022/06/26 03:02:51;;;;;;;0.47;0.47;;;13.80;99.90;;;;;;5104433;28;20455;-83
2022/06/26 03:05:19;;;;;;;0.50;0.50;;;13.70;99.90;;;;;;5104176;28;20575;-82
2022/06/26 03:07:46;;;;;;;0.60;0.47;;;13.60;99.90;;;;;;5102917;28;21074;-82
2022/06/26 03:10:13;;;;;;;0.47;0.40;;;13.60;99.90;;;;;;5107916;28;20458;-82
2022/06/26 03:12:45;;;;;;;0.67;0.60;;;13.70;99.90;;;;;;5102194;27;21281;-82
2022/06/26 03:15:12;;;;;;;0.50;0.50;;;13.60;99.90;;;;;;5108545;28;20444;-82
2022/06/26 03:17:40;;;;;;;0.60;0.53;;;13.70;99.90;;;;;;5107426;28;20443;-82
2022/06/26 03:20:08;;;;;;;1.00;0.30;;;13.70;99.90;;;;;;5108005;28;20481;-82
2022/06/26 03:22:37;;;;;;;2.07;0.90;;;13.70;99.90;;;;;;5108844;28;20476;-81
2022/06/26 03:25:04;;;;;;;0.50;0.50;;;13.70;99.90;;;;;;5106698;28;20556;-82
2022/06/26 03:27:31;;;;;;;0.50;0.50;;;13.80;99.90;;;;;;5109424;28;20529;-82
2022/06/26 03:29:58;;;;;;;0.60;0.50;;;13.80;99.90;;;;;;5105107;28;20558;-82
2022/06/26 03:32:25;;;;;;;0.50;0.50;;;13.80;99.90;;;;;;5108886;28;20506;-82
2022/06/26 03:34:52;;;;;;;0.57;0.57;;;13.90;99.90;;;;;;5107184;28;20529;-82
2022/06/26 03:37:20;;;;;;;2.43;0.83;;;13.90;99.90;;;;;;5109336;28;20497;-83
2022/06/26 03:39:49;;;;;;;0.93;0.70;;;13.80;99.90;;;;;;5106777;28;20511;-82
2022/06/26 03:42:16;;;;;;;0.60;0.50;;;13.90;99.90;;;;;;5108712;28;20532;-82
2022/06/26 03:44:42;;;;;;;0.77;0.40;;;14.10;99.90;;;;;;5106576;28;20467;-82
2022/06/26 03:47:09;;;;;;;0.53;0.50;;;14.10;99.90;;;;;;5107953;28;20570;-82
2022/06/26 03:49:36;;;;;;;0.63;0.57;;;14.00;99.90;;;;;;5108305;28;20455;-82
2022/06/26 03:52:04;;;;;;;0.67;0.57;;;14.00;99.90;;;;;;5099543;28;20463;-82
2022/06/26 03:54:32;;;;;;;0.60;0.60;;;14.10;99.90;;;;;;5107601;28;21143;-82
2022/06/26 03:57:00;;;;;;;4.83;1.03;;;14.20;99.90;;;;;;5105491;28;20889;-83
2022/06/26 03:59:27;;;;;;;1.50;0.83;;;14.40;99.90;;;;;;5106976;28;20505;-83
2022/06/26 04:01:54;;;;;;;1.07;0.50;;;14.40;99.90;;;;;;5108821;28;20455;-82
2022/06/26 04:04:21;;;;;;;0.70;0.50;;;14.30;99.90;;;;;;5104176;28;20460;-81
2022/06/26 04:06:48;;;;;;;1.13;1.03;;;14.40;99.90;;;;;;5102320;28;21248;-82
2022/06/26 04:09:15;;;;;;;0.70;0.60;;;14.50;99.90;;;;;;5107606;28;20496;-81
2022/06/26 04:11:42;;;;;;;0.93;0.50;;;14.50;99.90;;;;;;5101909;28;20541;-82
2022/06/26 04:14:10;;;;;;;0.63;0.63;;;14.50;99.90;;;;;;5105792;28;21167;-82
2022/06/26 04:16:37;;;;;;;0.83;0.50;;;14.50;99.90;;;;;;5107356;28;20520;-81
2022/06/26 04:19:04;;;;;;;0.50;0.50;;;14.60;99.90;;;;;;5106287;28;20529;-82
2022/06/26 04:21:31;;;;;;;0.97;0.57;;;14.70;99.90;;;;;;5104062;28;20614;-82
2022/06/26 04:23:58;;;;;;;0.80;0.70;;;14.80;99.90;;;;;;5107166;28;20916;-83
2022/06/26 04:26:25;;;;;;;0.70;0.70;;;14.90;99.90;;;;;;5106442;28;20567;-82
2022/06/26 04:28:52;;;;;;;0.63;0.63;;;15.10;99.90;;;;;;5106791;28;20506;-83
2022/06/26 04:31:21;;;;;;;0.83;0.47;;;15.40;99.90;;;;;;5102363;28;20525;-82
2022/06/26 04:33:47;;;;;;;0.80;0.80;;;15.70;99.90;;;;;;5105328;28;21022;-83
2022/06/26 04:36:14;;;;;;;0.40;0.40;;;15.80;99.90;;;;;;5095871;28;20562;-82
2022/06/26 04:38:41;;;;;;;1.17;0.50;;;15.90;99.90;;;;;;5105803;28;20442;-82
2022/06/26 04:43:49;;;;;;;0.70;0.57;;;16.00;99.90;;;;;;5098190;28;20903;-82
2022/06/26 04:46:16;;;;;;;0.60;0.50;;;16.00;99.90;;;;;;5105628;28;20487;-82
2022/06/26 04:48:44;;;;;;;1.90;1.00;;;16.10;99.90;;;;;;5105600;28;21033;-82
2022/06/26 04:51:11;;;;;;;0.90;0.80;;;16.20;99.90;;;;;;5107659;28;20512;-82
2022/06/26 04:53:38;;;;;;;0.93;0.60;;;16.20;99.90;;;;;;5101403;28;20489;-83
2022/06/26 04:56:05;;;;;;;0.47;0.47;;;16.40;99.90;;;;;;5103049;28;20471;-82
2022/06/26 04:58:32;;;;;;;0.60;0.60;;;16.40;99.90;;;;;;5105646;28;20478;-83
2022/06/26 05:00:59;;;;;;;1.17;0.70;;;16.60;99.90;;;;;;5106568;28;20529;-82
2022/06/26 05:03:26;;;;;;;1.13;1.03;;;16.60;99.90;;;;;;5105381;28;20895;-82
2022/06/26 05:05:54;;;;;;;0.97;0.40;;;16.60;99.90;;;;;;5107029;28;20477;-83
2022/06/26 05:08:21;;;;;;;1.00;0.90;;;16.60;99.90;;;;;;5105386;28;20534;-82
2022/06/26 05:10:49;;;;;;;0.40;0.40;;;16.80;99.90;;;;;;5106723;28;21049;-83
2022/06/26 05:13:16;;;;;;;1.33;1.03;;;17.00;99.90;;;;;;5107170;28;20480;-82
2022/06/26 05:15:42;;;;;;;0.60;0.60;;;17.10;99.90;;;;;;5105431;28;20481;-82
2022/06/26 05:18:10;;;;;;;0.50;0.47;;;17.10;99.90;;;;;;5102913;27;20456;-82
2022/06/26 05:20:37;;;;;;;0.70;0.50;;;17.20;99.90;;;;;;5105179;28;20481;-88
2022/06/26 05:23:07;;;;;;;0.80;0.53;;;17.30;99.90;;;;;;5108635;27;20792;-82
2022/06/26 05:25:34;;;;;;;0.50;0.50;;;17.40;99.90;;;;;;5114059;27;20455;-82
2022/06/26 05:28:01;;;;;;;0.40;0.33;;;17.50;99.90;;;;;;5101917;28;20553;-81
2022/06/26 05:30:28;;;;;;;0.60;0.40;;;17.60;99.90;;;;;;5103468;28;20458;-81
2022/06/26 05:32:55;;;;;;;1.10;0.67;;;17.80;99.90;;;;;;5099661;28;20490;-82
2022/06/26 05:35:22;;;;;;;0.50;0.40;;;17.80;99.90;;;;;;5106297;28;20538;-82
2022/06/26 05:37:50;;;;;;;1.80;0.40;;;17.80;99.90;;;;;;5103223;28;20472;-82
2022/06/26 05:40:18;;;;;;;0.50;0.40;;;18.10;99.90;;;;;;5106546;28;20458;-82
2022/06/26 05:42:45;;;;;;;0.50;0.40;;;18.10;99.90;;;;;;5105384;28;20466;-82
2022/06/26 05:45:12;;;;;;;0.50;0.40;;;18.20;99.90;;;;;;5103253;28;20523;-82
2022/06/26 05:47:39;;;;;;;0.50;0.50;;;18.30;99.90;;;;;;5105214;28;20481;-83
2022/06/26 05:50:07;;;;;;;0.73;0.60;;;18.50;99.90;;;;;;5102497;28;20454;-82
2022/06/26 05:52:34;;;;;;;0.50;0.50;;;18.50;99.90;;;;;;5100055;28;20638;-82
2022/06/26 05:55:01;;;;;;;0.70;0.33;;;18.80;99.90;;;;;;5102702;27;20518;-85
2022/06/26 05:57:29;;;;;;;0.60;0.50;;;19.00;99.90;;;;;;5104544;28;21072;-84
2022/06/26 05:59:56;;;;;;;0.60;0.60;;;19.20;99.90;;;;;;5105074;28;20508;-83
2022/06/26 06:02:23;;;;;;;0.50;0.43;;;19.30;99.90;;;;;;5104255;28;20863;-83
2022/06/26 06:04:51;;;;;;;0.40;0.40;;;19.60;99.90;;;;;;5102666;28;21115;-83
2022/06/26 06:07:18;;;;;;;0.70;0.40;;;19.80;99.90;;;;;;5099717;28;20575;-83
2022/06/26 06:09:45;;;;;;;0.40;0.40;;;19.90;99.90;;;;;;5104129;28;20864;-83
2022/06/26 06:12:12;;;;;;;0.53;0.53;;;20.00;99.90;;;;;;5104743;28;20474;-83
2022/06/26 06:14:40;;;;;;;0.60;0.50;;;19.90;99.90;;;;;;5092430;28;20497;-83
2022/06/26 06:19:48;;;;;;;0.60;0.57;;;20.20;99.90;;;;;;5099393;28;20448;-83
2022/06/26 06:22:15;;;;;;;2.30;0.50;;;20.40;99.90;;;;;;5104442;28;20808;-83
2022/06/26 06:24:43;;;;;;;0.50;0.50;;;20.40;99.90;;;;;;5102493;28;21138;-84
2022/06/26 06:27:10;;;;;;;0.50;0.50;;;20.60;99.90;;;;;;5104599;28;21116;-84
2022/06/26 06:29:37;;;;;;;1.23;0.50;;;20.60;99.90;;;;;;5102778;28;20484;-83
2022/06/26 06:32:06;;;;;;;0.50;0.50;;;20.50;99.90;;;;;;5101575;28;20547;-84
2022/06/26 06:34:33;;;;;;;1.03;0.50;;;20.70;99.90;;;;;;5096614;28;20545;-84
2022/06/26 06:37:00;;;;;;;0.50;0.40;;;20.70;99.90;;;;;;5104198;28;20536;-83
2022/06/26 06:39:27;;;;;;;0.60;0.40;;;20.80;99.90;;;;;;5102647;28;20460;-83
2022/06/26 06:41:54;;;;;;;0.50;0.40;;;21.00;99.90;;;;;;5105290;28;21033;-83
2022/06/26 06:44:21;;;;;;;0.60;0.43;;;20.80;99.90;;;;;;5103289;28;20540;-83
2022/06/26 06:46:48;;;;;;;0.50;0.40;;;20.90;99.90;;;;;;5103497;28;21056;-83
2022/06/26 06:49:16;;;;;;;0.73;0.50;;;21.10;99.90;;;;;;5105019;28;20537;-82
2022/06/26 06:51:43;;;;;;;0.60;0.50;;;21.50;99.90;;;;;;5103909;28;20504;-84
2022/06/26 06:54:10;;;;;;;0.90;0.50;;;21.30;99.90;;;;;;5103786;28;20842;-82
2022/06/26 06:56:39;;;;;;;1.00;0.60;;;21.40;99.90;;;;;;5103486;28;20442;-83
2022/06/26 06:59:06;;;;;;;0.60;0.53;;;21.60;99.90;;;;;;5102803;28;20457;-84
2022/06/26 07:01:33;;;;;;;0.60;0.50;;;21.80;99.90;;;;;;5101135;28;20485;-85
2022/06/26 07:04:00;;;;;;;0.70;0.50;;;21.90;99.90;;;;;;5096240;28;20458;-83
2022/06/26 07:06:29;;;;;;;0.40;0.33;;;22.10;99.90;;;;;;5103417;28;20434;-84
2022/06/26 07:08:56;;;;;;;0.67;0.60;;;22.40;99.90;;;;;;5104156;28;20461;-83
2022/06/26 07:11:23;;;;;;;0.60;0.60;;;22.50;99.90;;;;;;5102060;28;20453;-84
2022/06/26 07:13:51;;;;;;;0.77;0.50;;;22.10;99.90;;;;;;5102648;28;20525;-84
2022/06/26 07:16:18;;;;;;;0.60;0.43;;;22.40;99.90;;;;;;5101864;28;20484;-84
2022/06/26 07:18:45;;;;;;;0.50;0.50;;;22.50;99.90;;;;;;5104286;28;20450;-85
2022/06/26 07:21:13;;;;;;;0.50;0.50;;;22.50;99.90;;;;;;5102777;28;20904;-83
2022/06/26 07:23:41;;;;;;;0.50;0.50;;;22.40;99.90;;;;;;5104341;28;20471;-83
2022/06/26 07:26:08;;;;;;;0.50;0.50;;;22.20;99.90;;;;;;5101854;28;20482;-83
2022/06/26 07:28:35;;;;;;;1.73;0.50;;;22.50;99.90;;;;;;5099151;28;20514;-83
2022/06/26 07:31:02;;;;;;;0.50;0.40;;;22.60;99.90;;;;;;5100953;28;20438;-84
2022/06/26 07:36:13;;;;;;;0.60;0.50;;;22.80;99.90;;;;;;5102879;28;20509;-84
2022/06/26 07:38:41;;;;;;;1.20;0.50;;;22.70;99.90;;;;;;5098795;28;20454;-85
2022/06/26 07:41:08;;;;;;;0.70;0.47;;;22.20;99.90;;;;;;5103680;28;20481;-84
2022/06/26 07:43:35;;;;;;;0.53;0.40;;;22.60;99.90;;;;;;5099320;28;20630;-84
2022/06/26 07:46:02;;;;;;;0.50;0.50;;;23.20;99.90;;;;;;5103430;28;20525;-84
2022/06/26 07:48:29;;;;;;;0.60;0.50;;;23.20;99.90;;;;;;5100288;28;20547;-85
2022/06/26 07:50:56;;;;;;;0.50;0.40;;;23.40;99.90;;;;;;5103708;28;20518;-84
2022/06/26 07:53:23;;;;;;;0.50;0.40;;;23.40;99.00;;;;;;5102671;28;20474;-84
2022/06/26 07:55:52;;;;;;;0.50;0.40;;;22.90;99.90;;;;;;5105862;28;20478;-84
2022/06/26 07:58:19;;;;;;;0.70;0.53;;;22.80;99.90;;;;;;5104738;28;20462;-83
2022/06/26 08:00:45;;;;;;;0.40;0.30;;;23.20;99.90;;;;;;5107282;28;20442;-84
2022/06/26 08:03:13;;;;;;;0.70;0.53;;;23.10;99.40;;;;;;5105055;28;20537;-85
2022/06/26 08:05:41;;;;;;;1.00;0.50;;;23.00;99.90;;;;;;5107924;28;20470;-84
2022/06/26 08:08:09;;;;;;;0.50;0.40;;;23.30;99.90;;;;;;5107256;28;20478;-84
2022/06/26 08:10:36;;;;;;;0.50;0.40;;;23.20;99.70;;;;;;5107109;28;20719;-84
2022/06/26 08:13:06;;;;;;;0.50;0.40;;;23.20;99.90;;;;;;5103027;28;20450;-84
2022/06/26 08:15:33;;;;;;;0.60;0.50;;;23.30;99.80;;;;;;5105442;28;20455;-85
2022/06/26 08:18:00;;;;;;;0.50;0.40;;;23.40;99.00;;;;;;5100944;28;20474;-84
2022/06/26 08:20:27;;;;;;;0.40;0.30;;;24.10;99.90;;;;;;5110496;28;20474;-84
2022/06/26 08:22:54;;;;;;;0.60;0.47;;;24.60;99.90;;;;;;5114786;28;20449;-83
2022/06/26 08:25:21;;;;;;;0.50;0.40;;;24.50;98.50;;;;;;5104955;28;20455;-84
2022/06/26 08:27:48;;;;;;;0.50;0.40;;;24.30;98.20;;;;;;5111402;28;20999;-84
2022/06/26 08:30:17;;;;;;;0.40;0.30;;;24.40;95.00;;;;;;5106279;28;20448;-85
2022/06/26 08:32:44;;;;;;;0.50;0.43;;;24.50;97.30;;;;;;5107745;28;20450;-84
2022/06/26 08:35:12;;;;;;;0.60;0.50;;;24.90;97.70;;;;;;5106895;28;20562;-84
2022/06/26 08:37:40;;;;;;;0.53;0.50;;;25.00;95.50;;;;;;5109656;28;20996;-83
2022/06/26 08:40:08;;;;;;;0.60;0.50;;;25.40;95.70;;;;;;5108964;28;20893;-84
2022/06/26 08:42:39;;;;;;;0.53;0.50;;;25.40;94.30;;;;;;5098671;28;20470;-85
2022/06/26 08:45:07;;;;;;;0.50;0.50;;;24.90;97.10;;;;;;5106702;28;20478;-84
2022/06/26 08:47:39;;;;;;;0.50;0.50;;;25.30;96.60;;;;;;5106664;28;20485;-84
2022/06/26 08:50:08;;;;;;;0.50;0.40;;;25.00;94.60;;;;;;5106468;28;21043;-84
2022/06/26 08:52:36;;;;;;;0.50;0.43;;;25.20;95.40;;;;;;5102832;28;20453;-84
2022/06/26 08:55:04;;;;;;;0.50;0.40;;;25.20;94.50;;;;;;5101815;28;20577;-84
2022/06/26 08:57:33;;;;;;;0.60;0.40;;;25.20;95.20;;;;;;5107200;28;20525;-84
2022/06/26 09:00:00;;;;;;;0.50;0.40;;;25.50;93.00;;;;;;5106496;28;20446;-85
2022/06/26 09:02:27;;;;;;;0.50;0.40;;;25.40;95.20;;;;;;5105803;28;20519;-85
2022/06/26 09:04:57;;;;;;;0.50;0.50;;;25.10;93.20;;;;;;5107605;27;20506;-84
2022/06/26 09:07:24;;;;;;;0.40;0.30;;;24.90;95.20;;;;;;5103369;28;20998;-84
2022/06/26 09:09:51;;;;;;;0.40;0.30;;;25.10;94.50;;;;;;5105830;28;20462;-83
2022/06/26 09:12:18;;;;;;;2.70;0.40;;;24.90;92.90;;;;;;5105339;28;20546;-84
2022/06/26 09:14:45;;;;;;;0.50;0.40;;;24.90;95.00;;;;;;5107713;28;20577;-85
2022/06/26 09:17:12;;;;;;;0.40;0.30;;;25.20;94.00;;;;;;5105036;28;20527;-84
2022/06/26 09:19:43;;;;;;;0.50;0.40;;;25.30;94.40;;;;;;5105121;28;20442;-84
2022/06/26 09:22:13;;;;;;;0.50;0.40;;;25.30;93.70;;;;;;5105904;28;20450;-84
2022/06/26 09:24:53;;;;;;;0.50;0.40;;;25.50;95.40;;;;;;5105600;28;20486;-84
2022/06/26 09:27:21;;;;;;;0.50;0.50;;;25.90;94.50;;;;;;5106192;28;20488;-85
2022/06/26 09:29:50;;;;;;;0.50;0.50;;;26.10;95.50;;;;;;5104087;28;20515;-84
2022/06/26 09:32:17;;;;;;;1.43;0.60;;;26.10;95.60;;;;;;5104640;28;20438;-85
2022/06/26 09:34:46;;;;;;;0.77;0.40;;;26.60;92.90;;;;;;5111668;27;21059;-84
2022/06/26 09:37:16;;;;;;;0.60;0.40;;;26.70;92.60;;;;;;5106439;28;20808;-85
2022/06/26 09:39:43;;;;;;;0.50;0.40;;;26.90;93.20;;;;;;5102791;28;21026;-84
2022/06/26 09:42:18;;;;;;;0.57;0.50;;;26.60;93.50;;;;;;5104408;28;20556;-84
2022/06/26 09:44:47;;;;;;;0.50;0.40;;;26.80;93.30;;;;;;5102505;28;20467;-85
2022/06/26 09:47:22;;;;;;;0.50;0.40;;;26.70;90.80;;;;;;5105419;28;20515;-84
2022/06/26 09:49:51;;;;;;;0.50;0.40;;;26.70;91.80;;;;;;5105510;28;20960;-84
2022/06/26 09:52:21;;;;;;;0.50;0.50;;;26.50;89.40;;;;;;5100938;28;20465;-84
2022/06/26 09:54:49;;;;;;;0.40;0.40;;;26.40;89.20;;;;;;5105390;28;20916;-84
2022/06/26 09:57:16;;;;;;;0.50;0.40;;;26.00;90.10;;;;;;5103990;28;20462;-84
2022/06/26 09:59:44;;;;;;;0.40;0.40;;;26.20;86.60;;;;;;5101845;28;20513;-84
2022/06/26 10:07:48;;;;;;;0.77;0.60;;;26.60;89.00;;;;;;5104456;28;20508;-84
2022/06/26 10:10:18;;;;;;;0.70;0.40;;;27.10;87.60;;;;;;5102899;28;20462;-86
2022/06/26 10:12:47;;;;;;;0.47;0.37;;;27.10;82.40;;;;;;5102946;28;20545;-85
2022/06/26 10:15:17;;;;;;;0.57;0.40;;;27.30;85.50;;;;;;5101872;28;21267;-86
2022/06/26 10:18:15;;;;;;;0.80;0.60;;;27.40;84.50;;;;;;5104536;28;21132;-85
2022/06/26 10:20:43;;;;;;;0.47;0.40;;;27.60;83.80;;;;;;5104239;28;20535;-85
2022/06/26 10:23:11;;;;;;;0.50;0.40;;;27.50;80.00;;;;;;5104087;28;20454;-85
2022/06/26 10:25:46;;;;;;;0.50;0.40;;;27.70;86.60;;;;;;5103555;28;20539;-85
2022/06/26 10:28:19;;;;;;;0.60;0.40;;;27.80;88.60;;;;;;5099020;28;20467;-84
2022/06/26 10:30:46;;;;;;;0.90;0.50;;;27.50;87.30;;;;;;5104668;28;20552;-85
2022/06/26 10:33:14;;;;;;;0.50;0.40;;;27.50;80.50;;;;;;5105368;28;20525;-84
2022/06/26 10:35:43;;;;;;;0.50;0.40;;;27.30;84.30;;;;;;5105758;28;20446;-85
2022/06/26 10:38:26;;;;;;;0.47;0.40;;;27.20;81.50;;;;;;5092974;28;20917;-86
2022/06/26 10:43:58;;;;;;;0.57;0.40;;;27.10;83.70;;;;;;5102331;28;20488;-85
2022/06/26 10:46:25;;;;;;;0.50;0.40;;;27.30;89.80;;;;;;5104132;28;20458;-85
2022/06/26 10:48:54;;;;;;;0.80;0.40;;;27.40;81.50;;;;;;5104103;28;20517;-85
2022/06/26 10:51:26;;;;;;;0.50;0.40;;;27.90;88.70;;;;;;5104691;28;20446;-85
2022/06/26 10:53:55;;;;;;;0.50;0.40;;;28.10;81.30;;;;;;5105363;28;20508;-85
2022/06/26 10:56:23;;;;;;;0.40;0.30;;;28.10;77.70;;;;;;5104324;28;20462;-85
2022/06/26 10:58:58;;;;;;;0.50;0.40;;;28.40;81.60;;;;;;5105286;28;20480;-86
2022/06/26 11:01:27;;;;;;;0.50;0.40;;;28.40;79.90;;;;;;5104459;28;20510;-85
2022/06/26 11:03:54;;;;;;;0.47;0.30;;;28.40;74.00;;;;;;5103358;28;20541;-90
2022/06/26 11:06:27;;;;;;;0.60;0.47;;;28.20;71.20;;;;;;5098417;28;20474;-88
2022/06/26 11:08:56;;;;;;;0.50;0.40;;;28.10;76.70;;;;;;5105027;28;20482;-88
2022/06/26 11:11:30;;;;;;;0.50;0.33;;;27.60;79.30;;;;;;5097776;28;20469;-88
2022/06/26 11:13:58;;;;;;;0.50;0.40;;;27.70;78.90;;;;;;5103217;28;21004;-88
2022/06/26 11:16:33;;;;;;;1.27;0.40;;;28.30;86.90;;;;;;5120589;28;20438;-88
2022/06/26 11:19:03;;;;;;;0.40;0.30;;;28.20;77.20;;;;;;5113713;28;20960;-89
2022/06/26 11:21:30;;;;;;;0.57;0.40;;;28.00;70.50;;;;;;5115450;28;20506;-88
2022/06/26 11:23:59;;;;;;;0.50;0.40;;;28.30;76.60;;;;;;5109095;28;20469;-89
2022/06/26 11:26:26;;;;;;;0.50;0.30;;;28.60;73.80;;;;;;5103748;28;20446;-88
2022/06/26 11:28:58;;;;;;;0.50;0.40;;;28.60;70.50;;;;;;5104341;28;20481;-88
2022/06/26 11:31:26;;;;;;;0.50;0.30;;;28.50;70.30;;;;;;5107321;28;20458;-89
2022/06/26 11:33:54;;;;;;;0.40;0.30;;;28.40;67.90;;;;;;5104168;28;20445;-88
2022/06/26 11:36:22;;;;;;;0.47;0.30;;;28.40;71.40;;;;;;5107373;28;20449;-89
2022/06/26 11:38:53;;;;;;;0.40;0.30;;;28.70;68.50;;;;;;5107307;28;20449;-89
2022/06/26 11:41:22;;;;;;;0.50;0.30;;;28.50;65.80;;;;;;5107017;28;20454;-89
2022/06/26 11:43:52;;;;;;;0.40;0.30;;;28.30;59.80;;;;;;5106364;28;20453;-89
2022/06/26 11:46:20;;;;;;;0.50;0.33;;;28.40;60.00;;;;;;5103802;28;20463;-89
2022/06/26 11:48:49;;;;;;;0.40;0.30;;;28.20;59.50;;;;;;5102727;28;20581;-89
2022/06/26 11:51:18;;;;;;;0.50;0.30;;;28.30;59.80;;;;;;5107913;27;20450;-90
2022/06/26 11:53:46;;;;;;;0.50;0.40;;;28.60;64.40;;;;;;5106392;28;20987;-88
2022/06/26 11:56:20;;;;;;;0.40;0.30;;;28.60;64.90;;;;;;5103263;28;20711;-88
2022/06/26 11:58:50;;;;;;;0.40;0.30;;;28.80;59.60;;;;;;5101786;28;20446;-88
2022/06/26 12:01:18;;;;;;;0.50;0.30;;;28.70;57.30;;;;;;5104838;28;20486;-89
2022/06/26 12:03:53;;;;;;;0.40;0.30;;;29.00;64.20;;;;;;5105373;28;20454;-88
2022/06/26 12:06:28;;;;;;;1.03;0.30;;;29.30;59.20;;;;;;5103027;28;20887;-89
2022/06/26 12:08:56;;;;;;;0.40;0.30;;;29.20;57.90;;;;;;5101219;28;20550;-89
2022/06/26 12:11:23;;;;;;;0.40;0.30;;;29.20;62.30;;;;;;5105399;28;20458;-88
2022/06/26 12:13:52;;;;;;;0.50;0.30;;;29.30;59.60;;;;;;5104057;28;20550;-88
2022/06/26 12:16:19;;;;;;;0.60;0.40;;;29.00;57.00;;;;;;5105818;28;21034;-88
2022/06/26 12:18:48;;;;;;;0.50;0.30;;;29.20;57.40;;;;;;5103539;28;20455;-88
2022/06/26 12:21:17;;;;;;;0.43;0.33;;;29.30;57.70;;;;;;5106160;28;20539;-88
2022/06/26 12:23:45;;;;;;;0.50;0.30;;;29.40;57.90;;;;;;5107150;28;20442;-88
2022/06/26 12:26:16;;;;;;;0.50;0.40;;;29.30;59.90;;;;;;5104336;28;20457;-89
2022/06/26 12:28:45;;;;;;;0.50;0.30;;;29.70;58.10;;;;;;5101358;28;20474;-89
2022/06/26 12:31:15;;;;;;;0.40;0.30;;;29.70;60.40;;;;;;5105842;28;20826;-88
2022/06/26 12:33:42;;;;;;;0.50;0.40;;;30.00;57.70;;;;;;5106817;28;20462;-88
2022/06/26 12:36:09;;;;;;;0.50;0.30;;;29.90;58.30;;;;;;5100527;28;20461;-86
2022/06/26 12:38:37;;;;;;;0.60;0.40;;;29.70;61.40;;;;;;5105936;28;20507;-88
2022/06/26 12:41:05;;;;;;;0.40;0.30;;;29.70;56.70;;;;;;5106321;28;21014;-88
2022/06/26 12:43:32;;;;;;;0.40;0.30;;;29.90;58.50;;;;;;5107073;28;20474;-88
2022/06/26 12:45:59;;;;;;;0.50;0.40;;;29.80;57.90;;;;;;5100508;28;20457;-88
2022/06/26 12:48:27;;;;;;;0.90;0.40;;;29.50;58.20;;;;;;5105848;27;20568;-89
2022/06/26 12:50:54;;;;;;;0.83;0.30;;;29.70;62.50;;;;;;5096970;28;20538;-87
2022/06/26 12:53:21;;;;;;;0.40;0.30;;;29.60;59.40;;;;;;5098866;28;20446;-88
2022/06/26 12:55:48;;;;;;;0.50;0.30;;;29.60;57.10;;;;;;5103066;28;20487;-88
2022/06/26 12:58:15;;;;;;;0.40;0.30;;;28.90;58.10;;;;;;5100338;28;21058;-88
2022/06/26 13:00:42;;;;;;;0.40;0.30;;;28.90;58.50;;;;;;5106047;28;20533;-88
2022/06/26 13:03:09;;;;;;;0.40;0.30;;;29.10;57.60;;;;;;5104681;28;20447;-88
2022/06/26 13:05:37;;;;;;;0.40;0.30;;;29.50;60.70;;;;;;5105351;28;20988;-88
2022/06/26 13:08:05;;;;;;;0.50;0.40;;;29.90;56.00;;;;;;5098460;28;20459;-88
2022/06/26 13:10:32;;;;;;;0.50;0.30;;;29.60;53.80;;;;;;5098112;28;20564;-88